Zaghonan Magrane, Tunisia

1:19 PM CET on August 20, 2014 (GMT +0100)
Kelibia | Change Station
CLOSE
Current Station
Airport
Location: Kelibia,
Elevation: 98 ft
Nearby Weather Stations

Elev 98 ft 36.85 °N, 11.08 °E | Updated 19 minutes ago

Scattered Clouds
Scattered Clouds
86 °F
Feels Like 97 °F
N
7
Wind Variable Wind from Variable

Today
High -- | Low -- °F
--% Chance of Precip.
Yesterday
High -- | Low -- °F
Precip. -- in
5:38 AM 7:01 PM
Waning Crescent, 22% visible
Pressure 29.95 in
Visibility 6.2 miles
Clouds Scattered Clouds 2000 ft
Heat Index 97 °F
Dew Point 77 °F
Humidity 74%
Rainfall 0.00 in
Snow Depth Not available.
UV 8 out of 12
Pollen Not available.
Air Quality Not available.
Flu Activity Not available.
METAR DTTL 201200Z VRB06KT 9999 SCT020 30/25 Q1014

More Conditions Fewer Conditions

Pressure 29.95 in
Visibility 6.2 miles
Clouds Scattered Clouds 2000 ft
Heat Index 97 °F
Dew Point 77 °F
Humidity 74%
Rainfall 0.00 in
Snow Depth Not available.
UV 8 out of 12
Pollen Not available.
Air Quality Not available.
Flu Activity Not available.
METAR DTTL 201200Z VRB06KT 9999 SCT020 30/25 Q1014

More Conditions Fewer Conditions

10-Day Weather Forecast

Almanac

Astronomy

Aug. 20, 2014 Rise Set
Actual Time 5:38 AM CET 7:01 PM CET
Civil Twilight 5:11 AM CET 7:28 PM CET
Nautical Twilight 4:39 AM CET 8:00 PM CET
Astronomical Twilight 4:05 AM CET 8:34 PM CET
Moon 1:07 AM CET 3:30 PM CET
Length of Visible Light 14h 17m
Length of Day
13h 23m
Tomorrow will be 2m 6s shorter.
Waning Crescent, 22% of the Moon is Illuminated
Today
Waning Crescent
Aug 25
New
Sep 2
First Quarter
Sep 8
Full
Sep 15
Last Quarter

Yesterday's Extremes

Country Highs Country Lows

Community

WunderPhotos

Upload Photos

1,745,617 photos uploaded!

WunderBlogs® & News

By Dr. Jeff Masters
Director of Meteorology, Weather Underground
By Kari Strenfel
Meteorologist, Weather Underground
By Christopher C. Burt
Weather Historian, Weather Underground
August 20, 2014
August 20, 2014
August 20, 2014

Nearby

Snow Depth

Not available.

Earthquake Activity

City Distance Mag. Time & Date
No recent earthquake activity has been reported nearby.
Minimum magnitude displayed is 2.5.

Coastal Water Temperatures

Place Temperature
No Stations Reporting

Nearby Weather Stations